createdAt,value
2019-05-05T00:01:36.011Z,17.90
2019-05-05T00:04:21.054Z,17.70
2019-05-05T00:06:56.178Z,17.50
2019-05-05T00:09:31.671Z,17.30
2019-05-05T00:12:11.328Z,17.00
2019-05-05T00:14:56.425Z,16.70
2019-05-05T00:17:36.242Z,16.50
2019-05-05T00:20:12.091Z,16.30
2019-05-05T00:22:48.655Z,16.10
2019-05-05T00:25:24.941Z,16.10
2019-05-05T00:28:00.005Z,16.10
2019-05-05T00:30:36.058Z,16.20
2019-05-05T00:33:11.623Z,16.30
2019-05-05T00:35:47.014Z,16.40
2019-05-05T00:38:22.201Z,16.40
2019-05-05T00:40:56.942Z,16.40
2019-05-05T00:43:34.403Z,16.50
2019-05-05T00:46:15.326Z,16.50
2019-05-05T00:48:50.180Z,16.50
2019-05-05T00:51:25.060Z,16.60
2019-05-05T00:54:00.399Z,16.60
2019-05-05T00:56:35.298Z,16.70
2019-05-05T00:59:11.927Z,16.80
2019-05-05T01:02:04.655Z,17.00
2019-05-05T01:04:44.604Z,17.20
2019-05-05T01:07:20.554Z,17.50
2019-05-05T01:09:55.730Z,17.80
2019-05-05T01:12:34.854Z,18.00
2019-05-05T01:15:10.986Z,18.10
2019-05-05T01:17:45.845Z,18.20
2019-05-05T01:20:21.338Z,18.50
2019-05-05T01:22:57.401Z,18.60
2019-05-05T01:25:34.586Z,18.70
2019-05-05T01:28:09.045Z,18.70
2019-05-05T01:30:45.681Z,18.70
2019-05-05T01:33:27.634Z,18.80
2019-05-05T01:36:04.965Z,18.80
2019-05-05T01:38:46.633Z,18.80
2019-05-05T01:41:26.095Z,18.60
2019-05-05T01:44:00.874Z,18.50
2019-05-05T01:46:36.040Z,18.40
2019-05-05T01:49:12.084Z,18.40
2019-05-05T01:51:47.980Z,18.40
2019-05-05T01:54:24.821Z,18.20
2019-05-05T01:56:59.792Z,18.20
2019-05-05T01:59:35.390Z,18.00
2019-05-05T02:02:10.737Z,18.00
2019-05-05T02:04:45.834Z,18.10
2019-05-05T02:07:22.306Z,18.10
2019-05-05T02:09:57.296Z,18.20
2019-05-05T02:12:32.306Z,18.30
2019-05-05T02:15:08.045Z,18.40
2019-05-05T02:17:44.624Z,18.60
2019-05-05T02:20:44.885Z,18.90
2019-05-05T02:23:20.114Z,18.90
2019-05-05T02:25:55.298Z,18.80
2019-05-05T02:28:32.130Z,18.90
2019-05-05T02:31:27.073Z,19.00
2019-05-05T02:34:05.368Z,19.00
2019-05-05T02:36:39.334Z,19.00
2019-05-05T02:39:23.451Z,19.00
2019-05-05T02:41:54.639Z,18.90
2019-05-05T02:44:34.712Z,18.80
2019-05-05T02:47:15.650Z,18.80
2019-05-05T02:49:54.974Z,18.90
2019-05-05T02:52:30.111Z,19.20
2019-05-05T02:55:06.427Z,19.30
2019-05-05T02:57:43.825Z,19.20
2019-05-05T03:00:20.524Z,19.10
2019-05-05T03:02:56.166Z,19.10
2019-05-05T03:05:33.602Z,19.00
2019-05-05T03:08:08.436Z,18.90
2019-05-05T03:10:47.978Z,18.80
2019-05-05T03:13:24.405Z,18.60
2019-05-05T03:16:23.709Z,17.90
2019-05-05T03:18:59.647Z,16.70
2019-05-05T03:21:34.786Z,16.00
2019-05-05T03:24:11.183Z,15.60
2019-05-05T03:26:46.674Z,15.40
2019-05-05T03:29:24.192Z,15.40
2019-05-05T03:31:59.471Z,15.40
2019-05-05T03:34:34.737Z,15.50
2019-05-05T03:37:10.516Z,15.50
2019-05-05T03:39:47.336Z,15.60
2019-05-05T03:42:28.082Z,15.50
2019-05-05T03:45:04.787Z,15.50
2019-05-05T03:47:40.722Z,15.50
2019-05-05T03:50:16.412Z,15.60
2019-05-05T03:52:51.863Z,15.60
2019-05-05T03:55:27.115Z,15.70
2019-05-05T03:58:04.110Z,15.60
2019-05-05T04:00:55.491Z,15.70
2019-05-05T04:03:30.727Z,15.70
2019-05-05T04:06:06.774Z,15.70
2019-05-05T04:08:43.959Z,15.70
2019-05-05T04:11:18.546Z,15.70
2019-05-05T04:13:54.422Z,15.80
2019-05-05T04:16:34.224Z,15.70
2019-05-05T04:19:10.769Z,15.90
2019-05-05T04:21:48.564Z,15.90
2019-05-05T04:24:24.440Z,16.00
2019-05-05T04:26:59.863Z,16.00
2019-05-05T04:29:35.432Z,16.20
2019-05-05T04:32:28.963Z,16.30
2019-05-05T04:35:11.302Z,16.50
2019-05-05T04:37:46.254Z,16.70
2019-05-05T04:40:21.441Z,16.90
2019-05-05T04:42:56.399Z,17.00
2019-05-05T04:45:32.014Z,17.10
2019-05-05T04:48:11.235Z,17.20
2019-05-05T04:50:50.277Z,17.20
2019-05-05T04:53:28.948Z,17.20
2019-05-05T04:56:04.283Z,17.20
2019-05-05T04:58:39.201Z,17.20
2019-05-05T05:01:14.378Z,17.20
2019-05-05T05:03:56.085Z,17.20
2019-05-05T05:06:34.163Z,17.20
2019-05-05T05:09:09.206Z,17.20
2019-05-05T05:11:44.471Z,17.20
2019-05-05T05:14:19.287Z,17.20
2019-05-05T05:17:15.266Z,17.20
2019-05-05T05:19:54.076Z,17.30
2019-05-05T05:22:29.005Z,17.20
2019-05-05T05:25:04.484Z,17.20
2019-05-05T05:27:39.585Z,17.00
2019-05-05T05:30:15.299Z,16.80
2019-05-05T05:32:50.519Z,16.70
2019-05-05T05:35:25.202Z,16.50
2019-05-05T05:38:00.837Z,16.60
2019-05-05T05:40:44.315Z,16.60
2019-05-05T05:43:30.114Z,16.60
2019-05-05T05:46:05.854Z,16.60
2019-05-05T05:48:59.669Z,16.70
2019-05-05T05:51:34.665Z,16.60
2019-05-05T05:54:14.099Z,16.60
2019-05-05T05:56:46.513Z,16.70
2019-05-05T05:59:24.550Z,16.70
2019-05-05T06:02:09.807Z,16.60
2019-05-05T06:04:40.297Z,16.60
2019-05-05T06:07:15.272Z,16.60
2019-05-05T06:09:50.668Z,16.60
2019-05-05T06:12:25.633Z,16.60
2019-05-05T06:15:00.627Z,16.60
2019-05-05T06:17:36.822Z,16.70
2019-05-05T06:20:14.403Z,16.70
2019-05-05T06:22:48.755Z,16.70
2019-05-05T06:25:26.675Z,16.90
2019-05-05T06:28:00.750Z,17.00
2019-05-05T06:30:36.496Z,17.10
2019-05-05T06:33:13.552Z,17.10
2019-05-05T06:35:47.637Z,17.10
2019-05-05T06:38:23.978Z,17.20
2019-05-05T06:41:16.405Z,17.10
2019-05-05T06:44:01.051Z,17.10
2019-05-05T06:46:47.452Z,17.00
2019-05-05T06:49:23.690Z,17.00
2019-05-05T06:51:59.147Z,17.00
2019-05-05T06:54:34.857Z,16.90
2019-05-05T06:57:10.537Z,17.00
2019-05-05T06:59:45.658Z,17.00
2019-05-05T07:02:23.672Z,17.00
2019-05-05T07:04:57.907Z,17.00
2019-05-05T07:07:34.306Z,16.90
2019-05-05T07:10:10.490Z,17.00
2019-05-05T07:12:46.001Z,17.00
2019-05-05T07:15:23.744Z,17.00
2019-05-05T07:18:01.100Z,16.90
2019-05-05T07:20:36.290Z,16.90
2019-05-05T07:23:14.495Z,16.90
2019-05-05T07:25:49.112Z,16.80
2019-05-05T07:28:24.573Z,16.70
2019-05-05T07:30:59.576Z,16.60
2019-05-05T07:33:34.862Z,16.50
2019-05-05T07:36:27.450Z,16.40
2019-05-05T07:39:03.857Z,16.30
2019-05-05T07:41:40.523Z,16.30
2019-05-05T07:44:25.942Z,16.30
2019-05-05T07:46:51.279Z,16.30
2019-05-05T07:49:26.466Z,16.30
2019-05-05T07:52:04.037Z,16.30
2019-05-05T07:54:40.875Z,16.30
2019-05-05T07:57:15.755Z,16.40
2019-05-05T07:59:51.382Z,16.40
2019-05-05T08:02:45.781Z,16.50
2019-05-05T08:05:21.006Z,16.50
2019-05-05T08:07:55.683Z,16.60
2019-05-05T08:10:31.024Z,16.60
2019-05-05T08:13:06.095Z,16.60
2019-05-05T08:15:54.531Z,16.50
2019-05-05T08:18:24.277Z,16.50
2019-05-05T08:21:00.464Z,16.50
2019-05-05T08:23:36.785Z,16.50
2019-05-05T08:26:16.953Z,16.50
2019-05-05T08:29:04.507Z,16.50
2019-05-05T08:31:58.776Z,16.50
2019-05-05T08:34:35.606Z,16.50
2019-05-05T08:37:11.506Z,16.50
2019-05-05T08:39:46.429Z,16.50
2019-05-05T08:42:21.650Z,16.50
2019-05-05T08:44:56.372Z,16.50
2019-05-05T08:47:31.948Z,16.40
2019-05-05T08:50:08.086Z,16.40
2019-05-05T08:52:44.464Z,16.30
2019-05-05T08:55:19.820Z,16.20
2019-05-05T08:57:55.883Z,16.20
2019-05-05T09:00:30.903Z,16.10
2019-05-05T09:03:06.282Z,16.10
2019-05-05T09:05:43.542Z,16.20
2019-05-05T09:08:17.947Z,16.20
2019-05-05T09:10:55.034Z,16.20
2019-05-05T09:13:29.368Z,16.20
2019-05-05T09:16:04.620Z,16.20
2019-05-05T09:18:40.875Z,16.20
2019-05-05T09:21:15.756Z,16.20
2019-05-05T09:24:00.017Z,16.20
2019-05-05T09:26:45.241Z,16.10
2019-05-05T09:29:31.153Z,16.10
2019-05-05T09:32:06.218Z,16.10
2019-05-05T09:34:43.460Z,16.10
2019-05-05T09:37:17.664Z,16.10
2019-05-05T09:39:54.124Z,16.10
2019-05-05T09:42:29.155Z,16.10
2019-05-05T09:45:05.149Z,16.00
2019-05-05T09:47:40.148Z,16.00
2019-05-05T09:50:15.946Z,16.00
2019-05-05T09:52:53.542Z,16.00
2019-05-05T09:55:28.884Z,16.00
2019-05-05T09:58:04.526Z,15.90
2019-05-05T10:00:44.015Z,15.90
2019-05-05T10:03:18.906Z,15.90
2019-05-05T10:05:55.281Z,15.90
2019-05-05T10:08:30.743Z,15.90
2019-05-05T10:11:08.828Z,15.80
2019-05-05T10:13:45.924Z,15.80
2019-05-05T10:16:23.478Z,15.90
2019-05-05T10:18:58.484Z,15.80
2019-05-05T10:21:35.355Z,15.80
2019-05-05T10:24:30.136Z,15.80
2019-05-05T10:26:59.530Z,15.80
2019-05-05T10:29:35.230Z,15.80
2019-05-05T10:32:13.697Z,15.70
2019-05-05T10:34:51.074Z,15.80
2019-05-05T10:37:27.574Z,15.80
2019-05-05T10:40:03.632Z,15.90
2019-05-05T10:42:57.237Z,15.90
2019-05-05T10:45:33.905Z,15.90
2019-05-05T10:48:10.480Z,15.90
2019-05-05T10:50:46.700Z,15.90
2019-05-05T10:53:23.711Z,15.90
2019-05-05T10:56:00.294Z,15.90
2019-05-05T10:58:37.228Z,15.80
2019-05-05T11:01:14.559Z,15.90
2019-05-05T11:04:13.523Z,15.90
2019-05-05T11:06:49.736Z,15.80
2019-05-05T11:09:26.830Z,15.80
2019-05-05T11:12:07.084Z,15.90
2019-05-05T11:14:44.545Z,15.80
2019-05-05T11:17:24.594Z,15.80
2019-05-05T11:20:10.334Z,15.80
2019-05-05T11:22:47.074Z,15.80
2019-05-05T11:25:26.505Z,15.80
2019-05-05T11:28:04.743Z,15.70
2019-05-05T11:30:45.833Z,15.70
2019-05-05T11:33:23.705Z,15.80
2019-05-05T11:36:01.536Z,15.80
2019-05-05T11:38:37.166Z,15.70
2019-05-05T11:41:15.356Z,15.80
2019-05-05T11:43:53.399Z,15.80
2019-05-05T11:46:29.535Z,15.70
2019-05-05T11:49:04.942Z,15.70
2019-05-05T11:51:40.473Z,15.70
2019-05-05T11:54:15.536Z,15.70
2019-05-05T11:56:50.896Z,15.70
2019-05-05T11:59:26.118Z,15.70
2019-05-05T12:02:03.655Z,15.60
2019-05-05T12:04:39.738Z,15.60
2019-05-05T12:07:15.604Z,15.60
2019-05-05T12:09:51.537Z,15.60
2019-05-05T12:12:28.541Z,15.60
2019-05-05T12:15:04.355Z,15.60
2019-05-05T12:17:39.926Z,15.50
2019-05-05T12:20:17.334Z,15.50
2019-05-05T12:22:53.877Z,15.40
2019-05-05T12:25:46.458Z,15.40
2019-05-05T12:28:26.337Z,15.40
2019-05-05T12:31:15.174Z,15.50
2019-05-05T12:33:51.128Z,15.50
2019-05-05T12:36:26.266Z,15.40
2019-05-05T12:39:03.758Z,15.40
2019-05-05T12:41:39.758Z,15.40
2019-05-05T12:44:16.383Z,15.40
2019-05-05T12:46:55.571Z,15.40
2019-05-05T12:49:33.703Z,15.30
2019-05-05T12:52:08.462Z,15.30
2019-05-05T12:54:44.177Z,15.30
2019-05-05T12:57:18.954Z,15.20
2019-05-05T12:59:55.189Z,15.30
2019-05-05T13:02:30.445Z,15.20
2019-05-05T13:05:05.478Z,15.20
2019-05-05T13:07:40.208Z,15.20
2019-05-05T13:10:17.898Z,15.20
2019-05-05T13:12:54.317Z,15.20
2019-05-05T13:15:29.594Z,15.10
2019-05-05T13:18:04.690Z,15.10
2019-05-05T13:20:58.013Z,15.10
2019-05-05T13:23:50.248Z,15.10
2019-05-05T13:26:32.518Z,15.00
2019-05-05T13:29:26.436Z,15.00
2019-05-05T13:32:03.523Z,14.90
2019-05-05T13:34:38.144Z,14.90
2019-05-05T13:37:14.144Z,14.80
2019-05-05T13:39:49.756Z,14.80
2019-05-05T13:42:25.198Z,14.80
2019-05-05T13:45:04.490Z,14.80
2019-05-05T13:47:40.194Z,14.70
2019-05-05T13:50:17.045Z,14.70
2019-05-05T13:52:52.857Z,14.80
2019-05-05T13:55:28.359Z,14.80
2019-05-05T13:58:04.133Z,14.80
2019-05-05T14:00:39.492Z,14.80
2019-05-05T14:03:14.964Z,14.80
2019-05-05T14:05:49.962Z,14.80
2019-05-05T14:08:25.420Z,14.70
2019-05-05T14:11:00.342Z,14.70
2019-05-05T14:13:36.330Z,14.70
2019-05-05T14:16:11.211Z,14.70
2019-05-05T14:18:46.672Z,14.70
2019-05-05T14:21:21.615Z,14.70
2019-05-05T14:23:58.061Z,14.70
2019-05-05T14:26:35.209Z,14.70
2019-05-05T14:29:10.915Z,14.70
2019-05-05T14:31:46.532Z,14.70
2019-05-05T14:34:26.296Z,14.70
2019-05-05T14:37:18.943Z,14.70
2019-05-05T14:39:54.501Z,14.60
2019-05-05T14:42:29.563Z,14.60
2019-05-05T14:45:05.393Z,14.50
2019-05-05T14:47:40.828Z,14.50
2019-05-05T14:50:16.891Z,14.40
2019-05-05T14:52:53.502Z,14.40
2019-05-05T14:55:28.629Z,14.40
2019-05-05T14:58:03.938Z,14.40
2019-05-05T15:00:39.517Z,14.40
2019-05-05T15:03:14.751Z,14.30
2019-05-05T15:05:52.229Z,14.30
2019-05-05T15:08:43.987Z,14.20
2019-05-05T15:11:33.854Z,14.30
2019-05-05T15:14:08.581Z,14.20
2019-05-05T15:16:44.290Z,14.10
2019-05-05T15:19:19.049Z,14.10
2019-05-05T15:21:54.475Z,14.10
2019-05-05T15:24:29.505Z,14.00
2019-05-05T15:27:04.718Z,14.00
2019-05-05T15:29:39.278Z,14.00
2019-05-05T15:32:14.906Z,13.90
2019-05-05T15:34:50.050Z,13.90
2019-05-05T15:37:25.152Z,13.90
2019-05-05T15:40:00.150Z,13.80
2019-05-05T15:42:36.550Z,13.80
2019-05-05T15:45:11.546Z,13.80
2019-05-05T15:47:47.198Z,13.90
2019-05-05T15:50:22.287Z,13.90
2019-05-05T15:52:57.578Z,14.00
2019-05-05T15:55:33.961Z,14.00
2019-05-05T15:58:08.836Z,14.10
2019-05-05T16:00:44.327Z,14.10
2019-05-05T16:03:20.286Z,14.10
2019-05-05T16:05:55.345Z,14.10
2019-05-05T16:08:30.854Z,14.10
2019-05-05T16:11:05.699Z,14.00
2019-05-05T16:13:40.819Z,14.00
2019-05-05T16:16:26.297Z,14.00
2019-05-05T16:19:20.190Z,13.90
2019-05-05T16:21:56.764Z,13.80
2019-05-05T16:24:36.558Z,13.80
2019-05-05T16:27:21.192Z,13.80
2019-05-05T16:29:48.928Z,13.90
2019-05-05T16:32:24.837Z,13.90
2019-05-05T16:35:00.248Z,13.90
2019-05-05T16:37:35.275Z,14.00
2019-05-05T16:40:11.572Z,14.00
2019-05-05T16:42:46.570Z,14.00
2019-05-05T16:45:24.697Z,14.00
2019-05-05T16:47:59.020Z,14.00
2019-05-05T16:50:36.904Z,14.00
2019-05-05T16:53:14.022Z,14.00
2019-05-05T16:55:49.641Z,13.90
2019-05-05T16:58:24.782Z,14.00
2019-05-05T17:00:59.939Z,14.00
2019-05-05T17:03:34.825Z,13.90
2019-05-05T17:06:10.184Z,13.90
2019-05-05T17:08:46.035Z,13.80
2019-05-05T17:11:21.594Z,13.80
2019-05-05T17:13:57.538Z,13.80
2019-05-05T17:16:51.840Z,13.70
2019-05-05T17:19:27.903Z,13.70
2019-05-05T17:22:10.903Z,13.60
2019-05-05T17:24:45.576Z,13.60
2019-05-05T17:27:20.795Z,13.60
2019-05-05T17:29:55.745Z,13.60
2019-05-05T17:32:30.956Z,13.50
2019-05-05T17:35:05.971Z,13.50
2019-05-05T17:37:41.527Z,13.50
2019-05-05T17:40:17.921Z,13.50
2019-05-05T17:43:24.337Z,13.50
2019-05-05T17:45:59.631Z,13.40
2019-05-05T17:48:36.309Z,13.40
2019-05-05T17:54:06.342Z,13.50
2019-05-05T17:56:42.694Z,13.50
2019-05-05T17:59:17.868Z,13.50
2019-05-05T18:01:53.977Z,13.50
2019-05-05T18:04:33.420Z,13.40
2019-05-05T18:07:17.254Z,13.40
2019-05-05T18:09:59.430Z,13.30
2019-05-05T18:12:44.705Z,13.30
2019-05-05T18:15:37.507Z,13.30
2019-05-05T18:18:13.799Z,13.20
2019-05-05T18:20:48.872Z,13.20
2019-05-05T18:23:23.782Z,13.20
2019-05-05T18:25:59.167Z,13.20
2019-05-05T18:28:34.097Z,13.30
2019-05-05T18:31:09.331Z,13.20
2019-05-05T18:33:44.020Z,13.20
2019-05-05T18:36:19.070Z,13.20
2019-05-05T18:38:53.967Z,13.20
2019-05-05T18:41:30.850Z,13.20
2019-05-05T18:44:07.514Z,13.20
2019-05-05T18:46:43.575Z,13.20
2019-05-05T18:49:18.391Z,13.20
2019-05-05T18:51:53.730Z,13.30
2019-05-05T18:54:28.712Z,13.20
2019-05-05T18:57:05.284Z,13.20
2019-05-05T18:59:40.689Z,13.20
2019-05-05T19:02:26.184Z,13.20
2019-05-05T19:05:08.353Z,13.20
2019-05-05T19:07:55.380Z,13.20
2019-05-05T19:10:24.222Z,13.10
2019-05-05T19:13:00.629Z,13.20
2019-05-05T19:15:35.614Z,13.20
2019-05-05T19:18:11.235Z,13.10
2019-05-05T19:20:59.330Z,13.10
2019-05-05T19:23:35.640Z,13.10
2019-05-05T19:26:10.714Z,13.10
2019-05-05T19:28:49.853Z,13.10
2019-05-05T19:31:22.520Z,13.10
2019-05-05T19:33:57.945Z,13.00
2019-05-05T19:36:34.283Z,13.00
2019-05-05T19:39:10.275Z,13.00
2019-05-05T19:41:47.089Z,13.10
2019-05-05T19:44:25.865Z,13.10
2019-05-05T19:47:09.048Z,13.10
2019-05-05T19:49:45.883Z,13.20
2019-05-05T19:52:21.331Z,13.20
2019-05-05T19:54:56.799Z,13.30
2019-05-05T19:57:35.797Z,13.30
2019-05-05T20:00:08.793Z,13.30
2019-05-05T20:02:44.032Z,13.30
2019-05-05T20:05:20.397Z,13.40
2019-05-05T20:07:55.536Z,13.40
2019-05-05T20:10:30.846Z,13.40
2019-05-05T20:13:08.407Z,13.50
2019-05-05T20:15:45.872Z,13.40
2019-05-05T20:18:20.719Z,13.50
2019-05-05T20:21:15.260Z,13.40
2019-05-05T20:23:50.133Z,13.40
2019-05-05T20:26:25.592Z,13.40
2019-05-05T20:29:11.571Z,13.40
2019-05-05T20:31:37.472Z,13.40
2019-05-05T20:34:16.144Z,13.50
2019-05-05T20:37:08.966Z,13.50
2019-05-05T20:39:44.162Z,13.50
2019-05-05T20:42:19.240Z,13.40
2019-05-05T20:44:54.437Z,13.50
2019-05-05T20:47:29.786Z,13.40
2019-05-05T20:50:04.989Z,13.50
2019-05-05T20:52:40.171Z,13.50
2019-05-05T20:55:15.154Z,13.60
2019-05-05T20:57:50.134Z,13.60
2019-05-05T21:00:25.025Z,13.60
2019-05-05T21:03:00.675Z,13.70
2019-05-05T21:05:35.652Z,13.70
2019-05-05T21:08:10.746Z,13.80
2019-05-05T21:10:46.819Z,13.80
2019-05-05T21:13:22.565Z,13.80
2019-05-05T21:15:58.670Z,13.90
2019-05-05T21:18:34.987Z,13.90
2019-05-05T21:21:11.082Z,14.00
2019-05-05T21:23:50.774Z,14.10
2019-05-05T21:26:27.333Z,14.10
2019-05-05T21:29:04.420Z,14.10
2019-05-05T21:31:38.535Z,14.10
2019-05-05T21:34:14.519Z,14.10
2019-05-05T21:36:49.730Z,14.20
2019-05-05T21:39:25.033Z,14.20
2019-05-05T21:42:00.522Z,14.10
2019-05-05T21:44:37.701Z,14.20
2019-05-05T21:47:14.140Z,14.20
2019-05-05T21:49:48.843Z,14.20
2019-05-05T21:52:31.521Z,14.20
2019-05-05T21:55:11.403Z,14.30
2019-05-05T21:58:04.254Z,14.30
2019-05-05T22:00:44.256Z,14.40
2019-05-05T22:03:20.743Z,14.40
2019-05-05T22:05:56.730Z,14.50
2019-05-05T22:08:42.085Z,14.60
2019-05-05T22:11:17.292Z,14.70
2019-05-05T22:13:53.979Z,14.70
2019-05-05T22:16:30.527Z,14.80
2019-05-05T22:19:07.007Z,14.90
2019-05-05T22:21:46.261Z,15.00
2019-05-05T22:24:22.270Z,15.00
2019-05-05T22:27:05.561Z,15.10
2019-05-05T22:29:40.712Z,15.20
2019-05-05T22:32:18.774Z,15.30
2019-05-05T22:34:54.200Z,15.40
2019-05-05T22:37:34.403Z,15.40
2019-05-05T22:40:09.581Z,15.50
2019-05-05T22:42:44.666Z,15.60
2019-05-05T22:45:19.757Z,15.70
2019-05-05T22:47:56.003Z,15.70
2019-05-05T22:50:33.935Z,15.70
2019-05-05T22:53:09.015Z,15.80
2019-05-05T22:55:51.976Z,15.90
2019-05-05T22:58:27.500Z,15.90
2019-05-05T23:01:03.890Z,16.00
2019-05-05T23:03:42.584Z,16.00
2019-05-05T23:06:24.779Z,16.10
2019-05-05T23:09:01.517Z,16.20
2019-05-05T23:11:37.615Z,16.40
2019-05-05T23:14:34.593Z,16.40
2019-05-05T23:17:26.221Z,16.50
2019-05-05T23:20:04.770Z,16.60
2019-05-05T23:22:59.476Z,16.60
2019-05-05T23:25:41.569Z,16.60
2019-05-05T23:28:16.860Z,16.70
2019-05-05T23:30:54.566Z,16.80
2019-05-05T23:33:41.159Z,16.90
2019-05-05T23:36:16.971Z,17.00
2019-05-05T23:38:51.764Z,17.10
2019-05-05T23:41:26.792Z,17.20
2019-05-05T23:44:03.543Z,17.20
2019-05-05T23:46:37.946Z,17.30
2019-05-05T23:49:13.805Z,17.40
2019-05-05T23:51:48.980Z,17.50
2019-05-05T23:54:24.572Z,17.50
2019-05-05T23:57:19.240Z,17.60
2019-05-05T23:59:53.964Z,17.60
